Time;durP1;ratioP1;P1;durP2;ratioP2;P2;SDS_P1;SDS_P2;PMS_P1;PMS_P2;Temp;Humidity;BMP_temperature;BMP_pressure;BME280_temperature;BME280_humidity;BME280_pressure;Samples;Min_cycle;Max_cycle;Signal;HPM_P1;HPM_P2
2022/02/19 00:00:47;;;;;;;7.57;2.40;;;;;;;-0.45;99.36;94839.56;5059309;28;19920;-80
2022/02/19 00:03:23;;;;;;;8.75;2.92;;;;;;;-0.65;100.00;94851.13;5058598;28;20041;-80
2022/02/19 00:05:49;;;;;;;8.57;5.05;;;;;;;-0.34;100.00;94865.06;5040063;28;20515;-80
2022/02/19 00:08:14;;;;;;;13.30;3.80;;;;;;;-0.33;100.00;94862.41;5037922;28;20060;-80
2022/02/19 00:10:40;;;;;;;8.55;2.80;;;;;;;-0.32;100.00;94865.78;5056715;28;20108;-81
2022/02/19 00:13:09;;;;;;;7.30;3.53;;;;;;;-0.16;99.94;94869.66;5062757;28;20029;-81
2022/02/19 00:15:35;;;;;;;4.93;2.70;;;;;;;-0.23;99.00;94867.66;5042701;28;20104;-80
2022/02/19 00:18:02;;;;;;;5.13;2.80;;;;;;;-0.42;99.12;94867.34;5062667;28;20032;-81
2022/02/19 00:20:32;;;;;;;6.05;3.25;;;;;;;-0.48;99.81;94865.22;5065467;28;20040;-81
2022/02/19 00:23:00;;;;;;;7.87;4.20;;;;;;;-0.57;100.00;94870.00;5059724;28;20057;-80
2022/02/19 00:25:26;;;;;;;7.85;4.03;;;;;;;-0.62;100.00;94887.31;5063363;28;20346;-80
2022/02/19 00:27:55;;;;;;;8.63;4.30;;;;;;;-0.49;100.00;94900.00;5058653;28;20033;-80
2022/02/19 00:30:30;;;;;;;13.18;4.68;;;;;;;-0.64;100.00;94893.41;5057546;28;20028;-81
2022/02/19 00:32:58;;;;;;;8.30;3.75;;;;;;;-0.41;99.95;94894.38;5049026;28;20053;-81
2022/02/19 00:35:31;;;;;;;7.72;3.25;;;;;;;-0.44;99.47;94899.66;5067776;28;20037;-81
2022/02/19 00:37:59;;;;;;;5.05;2.45;;;;;;;-0.54;99.91;94905.38;5070488;28;20320;-81
2022/02/19 00:40:25;;;;;;;10.48;3.55;;;;;;;-0.41;100.00;94907.91;5065074;28;20033;-81
2022/02/19 00:42:53;;;;;;;7.32;3.95;;;;;;;-0.42;100.00;94913.09;5064786;28;20110;-81
2022/02/19 00:45:23;;;;;;;12.55;5.40;;;;;;;-0.59;100.00;94904.09;5065831;28;20021;-81
2022/02/19 00:47:56;;;;;;;8.48;5.07;;;;;;;-0.34;99.87;94906.56;5066295;28;20078;-81
2022/02/19 00:50:24;;;;;;;8.32;3.33;;;;;;;-0.52;99.93;94905.31;5068733;28;20048;-81
2022/02/19 00:52:50;;;;;;;36.00;23.17;;;;;;;-1.09;100.00;94902.41;5053675;28;20021;-80
2022/02/19 00:55:15;;;;;;;32.13;18.25;;;;;;;-1.14;100.00;94901.91;5072839;28;20075;-80
2022/02/19 00:57:41;;;;;;;16.30;10.43;;;;;;;-0.86;100.00;94909.31;5069719;28;20037;-81
2022/02/19 01:00:14;;;;;;;11.02;5.53;;;;;;;-0.67;100.00;94894.44;5064434;28;20057;-82
2022/02/19 01:02:40;;;;;;;9.07;3.00;;;;;;;-0.64;100.00;94896.75;5069875;28;20088;-82
2022/02/19 01:05:15;;;;;;;6.95;3.35;;;;;;;-0.55;100.00;94896.13;5070722;28;20028;-81
2022/02/19 01:07:40;;;;;;;5.35;2.67;;;;;;;-0.50;100.00;94889.91;5072339;28;20033;-82
2022/02/19 01:10:14;;;;;;;9.45;2.35;;;;;;;-0.64;100.00;94868.81;5059125;28;20031;-81
2022/02/19 01:12:40;;;;;;;4.97;2.50;;;;;;;-0.68;100.00;94879.31;5077258;28;20021;-82
2022/02/19 01:15:11;;;;;;;9.27;2.13;;;;;;;-0.88;100.00;94878.13;5076688;28;20020;-81
2022/02/19 01:17:41;;;;;;;4.57;2.30;;;;;;;-0.75;100.00;94878.09;5073678;28;20020;-82
2022/02/19 01:20:11;;;;;;;8.38;2.40;;;;;;;-0.85;100.00;94880.44;5076242;28;20021;-82
2022/02/19 01:22:39;;;;;;;4.10;1.90;;;;;;;-0.67;100.00;94879.19;5073535;28;20048;-82
2022/02/19 01:25:05;;;;;;;5.32;2.10;;;;;;;-0.63;100.00;94877.25;5059932;28;20263;-82
2022/02/19 01:27:33;;;;;;;6.72;2.45;;;;;;;-0.81;100.00;94874.25;5060248;28;20434;-83
2022/02/19 01:29:58;;;;;;;7.40;2.60;;;;;;;-0.75;100.00;94871.28;5058077;28;20032;-83
2022/02/19 01:32:24;;;;;;;6.78;2.33;;;;;;;-0.63;100.00;94887.41;5073855;28;20021;-83
2022/02/19 01:34:50;;;;;;;8.45;2.58;;;;;;;-0.71;100.00;94895.59;5072953;28;20016;-82
2022/02/19 01:37:18;;;;;;;7.53;2.72;;;;;;;-0.79;100.00;94895.28;5057688;28;20063;-83
2022/02/19 01:39:44;;;;;;;6.53;2.40;;;;;;;-0.76;100.00;94872.19;5077768;28;20081;-83
2022/02/19 01:42:12;;;;;;;13.38;8.73;;;;;;;-1.09;100.00;94872.75;5077388;28;20009;-83
2022/02/19 01:44:39;;;;;;;47.42;28.52;;;;;;;-0.97;100.00;94877.94;5060978;28;20039;-83
2022/02/19 01:47:06;;;;;;;39.50;23.10;;;;;;;-0.96;100.00;94882.09;5057114;28;20097;-82
2022/02/19 01:49:32;;;;;;;18.58;12.10;;;;;;;-0.88;100.00;94878.13;5073982;28;20017;-82
2022/02/19 01:52:02;;;;;;;9.55;4.30;;;;;;;-0.81;100.00;94871.72;5056825;28;20025;-83
2022/02/19 01:54:28;;;;;;;9.95;2.55;;;;;;;-0.83;100.00;94881.16;5072863;28;20023;-83
2022/02/19 01:56:53;;;;;;;8.13;2.60;;;;;;;-0.87;100.00;94863.69;5075730;28;20572;-83
2022/02/19 01:59:27;;;;;;;7.38;2.15;;;;;;;-0.80;100.00;94865.69;5072187;28;20028;-81
2022/02/19 02:01:55;;;;;;;6.68;2.45;;;;;;;-0.69;100.00;94863.22;5073310;28;20074;-83
2022/02/19 02:04:20;;;;;;;6.35;2.25;;;;;;;-0.74;100.00;94862.72;5056143;28;20021;-82
2022/02/19 02:06:49;;;;;;;7.93;2.80;;;;;;;-0.83;100.00;94860.00;5072233;28;20072;-82
2022/02/19 02:09:15;;;;;;;7.28;2.60;;;;;;;-0.81;100.00;94856.47;5053623;28;20062;-82
2022/02/19 02:11:45;;;;;;;8.32;2.53;;;;;;;-0.90;100.00;94866.44;5068521;28;20033;-81
2022/02/19 02:14:14;;;;;;;6.22;2.42;;;;;;;-1.00;100.00;94861.16;5072642;28;20019;-82
2022/02/19 02:16:44;;;;;;;6.40;2.63;;;;;;;-0.78;100.00;94865.59;5073176;28;20055;-82
2022/02/19 02:19:10;;;;;;;;;;;;;;;-0.70;100.00;94866.69;5056417;28;20025;-82
2022/02/19 02:21:37;;;;;;;11.30;2.85;;;;;;;-0.79;100.00;94867.31;5074502;28;19944;-82
2022/02/19 02:24:03;;;;;;;6.13;3.20;;;;;;;-1.02;100.00;94860.44;5054538;28;20045;-81
2022/02/19 02:26:31;;;;;;;7.35;2.40;;;;;;;-1.07;100.00;94858.22;5075033;28;20063;-82
2022/02/19 02:28:56;;;;;;;6.57;2.50;;;;;;;-1.10;100.00;94850.00;5074511;28;20025;-82
2022/02/19 02:31:22;;;;;;;9.48;4.13;;;;;;;-1.14;100.00;94853.66;5074115;28;20024;-83
2022/02/19 02:33:48;;;;;;;10.88;3.78;;;;;;;-1.10;100.00;94857.63;5075664;28;20017;-82
2022/02/19 02:36:17;;;;;;;10.57;2.70;;;;;;;-1.38;100.00;94850.22;5058869;28;20017;-82
2022/02/19 02:38:43;;;;;;;5.53;2.47;;;;;;;-1.36;100.00;94851.75;5076581;28;20037;-82
2022/02/19 02:41:09;;;;;;;6.70;2.58;;;;;;;-1.20;100.00;94856.59;5072596;28;20029;-81
2022/02/19 02:43:40;;;;;;;6.43;1.83;;;;;;;-1.14;100.00;94858.72;5070538;28;20029;-82
2022/02/19 02:46:08;;;;;;;10.88;6.60;;;;;;;-1.06;100.00;94862.38;5071929;28;20028;-83
2022/02/19 02:48:33;;;;;;;15.00;7.80;;;;;;;-1.06;100.00;94856.50;5071893;28;20031;-82
2022/02/19 02:51:01;;;;;;;10.05;5.18;;;;;;;-0.85;100.00;94860.13;5071498;28;20024;-82
2022/02/19 02:53:29;;;;;;;12.10;4.15;;;;;;;-0.96;100.00;94865.09;5073356;28;20047;-82
2022/02/19 02:55:57;;;;;;;6.63;2.85;;;;;;;-0.94;100.00;94859.94;5058603;28;20017;-82
2022/02/19 02:58:22;;;;;;;5.03;2.58;;;;;;;-0.85;100.00;94857.56;5075276;28;20510;-82
2022/02/19 03:00:48;;;;;;;13.90;3.90;;;;;;;-1.03;100.00;94855.47;5073631;28;20079;-82
2022/02/19 03:03:16;;;;;;;10.02;4.55;;;;;;;-1.03;100.00;94858.84;5073389;28;20021;-81
2022/02/19 03:05:41;;;;;;;8.80;3.42;;;;;;;-0.91;100.00;94854.63;5054570;28;20033;-82
2022/02/19 03:08:07;;;;;;;8.52;3.47;;;;;;;-0.90;100.00;94862.16;5047910;28;20058;-81
2022/02/19 03:10:37;;;;;;;8.55;3.70;;;;;;;-0.99;100.00;94854.34;5063862;28;20092;-82
2022/02/19 03:13:05;;;;;;;;;;;;;;;-0.92;100.00;94869.06;5070492;28;20025;-81
2022/02/19 03:15:30;;;;;;;10.27;3.20;;;;;;;-1.01;100.00;94854.44;5073467;28;19931;-81
2022/02/19 03:17:56;;;;;;;4.43;2.30;;;;;;;-1.18;100.00;94847.97;5067255;28;20029;-81
2022/02/19 03:20:26;;;;;;;6.57;2.45;;;;;;;-1.09;100.00;94871.94;5057330;28;20041;-81
2022/02/19 03:22:54;;;;;;;10.40;3.47;;;;;;;-1.14;100.00;94872.25;5061463;28;20091;-80
2022/02/19 03:25:20;;;;;;;11.50;6.22;;;;;;;-1.10;100.00;94860.16;5062279;28;20110;-82
2022/02/19 03:27:46;;;;;;;17.80;9.60;;;;;;;-1.10;100.00;94875.41;5070474;28;20032;-82
2022/02/19 03:30:12;;;;;;;19.45;9.27;;;;;;;-1.11;100.00;94874.59;5070546;28;20087;-82
2022/02/19 03:32:38;;;;;;;12.18;6.28;;;;;;;-1.10;100.00;94891.47;5071788;28;20033;-83
2022/02/19 03:35:07;;;;;;;10.60;4.35;;;;;;;-1.13;100.00;94875.59;5075471;28;20028;-82
2022/02/19 03:37:37;;;;;;;8.88;3.55;;;;;;;-1.34;100.00;94869.41;5058668;28;20040;-81
2022/02/19 03:40:08;;;;;;;13.40;4.47;;;;;;;-1.52;100.00;94873.16;5075878;28;20036;-81
2022/02/19 03:42:40;;;;;;;7.97;2.95;;;;;;;-1.68;100.00;94878.44;5077025;28;20017;-82
2022/02/19 03:45:08;;;;;;;5.80;2.55;;;;;;;-1.32;100.00;94872.66;5071801;28;20020;-82
2022/02/19 03:47:35;;;;;;;10.27;4.05;;;;;;;-1.28;100.00;94876.59;5071797;28;20093;-82
2022/02/19 03:50:01;;;;;;;10.48;5.63;;;;;;;-1.25;100.00;94878.94;5055201;28;20054;-82
2022/02/19 03:52:27;;;;;;;13.73;6.10;;;;;;;-1.17;100.00;94881.81;5070979;28;20033;-82
2022/02/19 03:54:52;;;;;;;9.95;5.60;;;;;;;-1.08;100.00;94881.19;5053847;28;20028;-83
2022/02/19 03:57:17;;;;;;;13.43;6.78;;;;;;;-1.19;100.00;94873.47;5071124;28;20093;-83
2022/02/19 03:59:43;;;;;;;13.95;7.03;;;;;;;-1.27;100.00;94878.25;5071184;28;20025;-82
2022/02/19 04:02:08;;;;;;;11.05;4.75;;;;;;;-1.27;100.00;94878.25;5073799;28;20422;-82
2022/02/19 04:04:34;;;;;;;10.43;5.18;;;;;;;-1.29;100.00;94880.91;5073644;28;20063;-83
2022/02/19 04:06:59;;;;;;;8.95;3.85;;;;;;;-1.23;100.00;94869.50;5057629;28;20084;-82
2022/02/19 04:09:25;;;;;;;10.18;4.40;;;;;;;-1.25;100.00;94874.69;5073074;28;20037;-83
2022/02/19 04:11:50;;;;;;;12.90;5.00;;;;;;;-1.43;100.00;94877.63;5074176;28;20025;-82
2022/02/19 04:14:16;;;;;;;7.13;2.80;;;;;;;-1.33;100.00;94881.19;5058710;28;20077;-82
2022/02/19 04:16:41;;;;;;;13.52;4.28;;;;;;;-1.32;100.00;94870.94;5072354;28;20056;-83
2022/02/19 04:19:09;;;;;;;11.48;5.15;;;;;;;-1.36;100.00;94878.84;5070956;28;20029;-82
2022/02/19 04:21:35;;;;;;;17.17;6.05;;;;;;;-1.56;100.00;94876.81;5074621;28;20024;-81
2022/02/19 04:24:00;;;;;;;17.30;7.15;;;;;;;-1.87;100.00;94873.72;5059120;28;20057;-82
2022/02/19 04:26:28;;;;;;;12.40;5.22;;;;;;;-1.88;100.00;94879.69;5075193;28;20081;-82
2022/02/19 04:29:03;;;;;;;;;;;;;;;;;;;;;
2022/02/19 04:31:31;;;;;;;8.43;5.07;;;;;;;-1.61;100.00;94892.34;5057416;28;20104;-80
2022/02/19 04:33:57;;;;;;;13.70;7.15;;;;;;;-1.67;100.00;94885.13;5058231;28;20029;-80
2022/02/19 04:36:25;;;;;;;23.63;9.95;;;;;;;-1.62;100.00;94883.91;5070367;28;20027;-80
2022/02/19 04:38:50;;;;;;;15.60;7.28;;;;;;;-1.61;100.00;94877.91;5074446;28;20017;-82
2022/02/19 04:41:16;;;;;;;10.05;4.47;;;;;;;-1.70;100.00;94886.13;5075925;28;20120;-80
2022/02/19 04:43:41;;;;;;;5.72;2.95;;;;;;;-1.81;100.00;94882.66;5074525;28;20056;-81
2022/02/19 04:46:06;;;;;;;7.65;3.25;;;;;;;-1.78;100.00;94885.81;5074514;28;20025;-82
2022/02/19 04:48:32;;;;;;;12.02;4.65;;;;;;;-1.72;100.00;94882.06;5072526;28;20036;-82
2022/02/19 04:51:00;;;;;;;13.60;6.05;;;;;;;-1.72;100.00;94887.97;5074609;28;20009;-81
2022/02/19 04:53:26;;;;;;;9.60;5.20;;;;;;;-1.58;100.00;94891.31;5059558;28;20027;-82
2022/02/19 04:55:51;;;;;;;9.20;4.47;;;;;;;-1.89;100.00;94887.41;5076817;28;20013;-84
2022/02/19 04:58:17;;;;;;;7.05;3.35;;;;;;;-1.85;100.00;94883.75;5061804;28;20060;-82
2022/02/19 05:00:42;;;;;;;6.93;3.58;;;;;;;-1.70;100.00;94891.19;5076108;28;20041;-81
2022/02/19 05:03:07;;;;;;;8.00;3.28;;;;;;;-1.97;100.00;94887.09;5067379;28;20031;-81
2022/02/19 05:05:33;;;;;;;7.32;3.50;;;;;;;-1.89;100.00;94879.78;5078742;28;20076;-82
2022/02/19 05:07:58;;;;;;;9.32;4.38;;;;;;;-1.85;100.00;94881.22;5078634;28;20414;-81
2022/02/19 05:10:24;;;;;;;7.45;4.13;;;;;;;-1.72;100.00;94877.81;5075830;28;20029;-81
2022/02/19 05:12:51;;;;;;;30.38;12.32;;;;;;;-1.64;100.00;94884.94;5074434;28;20051;-82
2022/02/19 05:15:16;;;;;;;29.50;14.65;;;;;;;-1.69;100.00;94881.88;5057408;28;20025;-82
2022/02/19 05:17:49;;;;;;;39.85;19.88;;;;;;;-1.62;100.00;94899.16;5056842;28;20132;-83
2022/02/19 05:20:19;;;;;;;35.35;18.15;;;;;;;-1.58;100.00;94889.59;5072607;28;20032;-82
2022/02/19 05:22:44;;;;;;;16.15;9.27;;;;;;;-1.55;100.00;94897.03;5059462;28;20117;-82
2022/02/19 05:25:10;;;;;;;18.90;10.98;;;;;;;-1.52;100.00;94893.47;5059144;28;20207;-81
2022/02/19 05:27:36;;;;;;;45.90;19.88;;;;;;;-1.55;100.00;94891.94;5071732;28;20029;-83
2022/02/19 05:30:01;;;;;;;39.33;18.67;;;;;;;-1.42;100.00;94890.22;5070918;28;20088;-81
2022/02/19 05:32:27;;;;;;;86.25;48.00;;;;;;;-1.35;100.00;94895.72;5067471;28;20025;-81
2022/02/19 05:34:55;;;;;;;25.73;15.30;;;;;;;-1.17;100.00;94889.41;5053755;28;20044;-82
2022/02/19 05:37:20;;;;;;;12.30;5.30;;;;;;;-1.16;100.00;94881.72;5058476;28;20040;-81
2022/02/19 05:39:46;;;;;;;10.13;4.18;;;;;;;-1.13;100.00;94886.59;5057904;28;20020;-81
2022/02/19 05:42:11;;;;;;;17.02;5.80;;;;;;;-1.03;100.00;94888.50;5071603;28;20029;-82
2022/02/19 05:44:36;;;;;;;8.23;6.03;;;;;;;-0.75;100.00;94896.69;5065642;28;20509;-80
2022/02/19 05:47:02;;;;;;;11.68;6.32;;;;;;;-0.14;100.00;94897.53;5058864;28;20495;-81
2022/02/19 05:49:27;;;;;;;18.13;11.40;;;;;;;1.20;95.37;94909.72;5060267;28;20025;-80
2022/02/19 05:51:53;;;;;;;16.52;8.63;;;;;;;2.05;87.66;94906.50;5069325;28;20037;-80
2022/02/19 05:54:18;;;;;;;15.07;9.18;;;;;;;4.24;76.30;94891.53;5060995;28;20029;-85
2022/02/19 05:56:46;;;;;;;23.63;12.65;;;;;;;5.16;66.83;94897.78;5027329;28;20029;-84
2022/02/19 05:59:12;;;;;;;16.13;10.90;;;;;;;5.00;63.87;94887.28;5027558;28;20044;-81
2022/02/19 06:01:39;;;;;;;13.25;9.50;;;;;;;5.59;61.21;94885.19;5029764;28;20025;-83
2022/02/19 06:04:05;;;;;;;14.27;10.15;;;;;;;4.59;64.94;94889.22;5043389;28;20024;-84
2022/02/19 06:06:33;;;;;;;9.38;3.60;;;;;;;3.95;71.00;94886.38;5043222;28;20029;-80
2022/02/19 06:08:58;;;;;;;8.80;3.83;;;;;;;5.93;64.03;94887.22;5054372;28;20052;-84
2022/02/19 06:11:24;;;;;;;12.07;5.93;;;;;;;7.19;55.58;94880.91;5044992;28;20062;-83
2022/02/19 06:13:49;;;;;;;13.68;9.80;;;;;;;8.14;53.17;94863.41;5059317;28;20029;-82
2022/02/19 06:16:15;;;;;;;6.35;3.83;;;;;;;8.30;52.61;94857.50;5045084;28;20021;-81
2022/02/19 06:18:40;;;;;;;9.57;3.85;;;;;;;7.28;54.32;94859.38;5042881;28;20044;-83
2022/02/19 06:21:06;;;;;;;4.78;3.60;;;;;;;8.00;54.63;94863.19;5044343;28;20032;-82
2022/02/19 06:23:31;;;;;;;9.32;6.20;;;;;;;7.70;53.19;94843.97;5043904;28;20041;-80
2022/02/19 06:25:57;;;;;;;5.80;3.25;;;;;;;9.79;48.04;94850.03;5026662;28;20544;-80
2022/02/19 06:28:22;;;;;;;21.27;4.25;;;;;;;7.61;53.01;94848.25;5060700;28;20035;-79
2022/02/19 06:30:48;;;;;;;7.47;1.95;;;;;;;6.99;55.38;94844.25;5065113;28;20173;-80
2022/02/19 06:33:14;;;;;;;5.47;2.60;;;;;;;7.62;56.30;94855.03;5068050;28;20028;-80
2022/02/19 06:35:39;;;;;;;6.38;2.75;;;;;;;8.14;54.40;94854.88;5045469;28;20032;-81
2022/02/19 06:38:04;;;;;;;11.10;2.47;;;;;;;7.38;57.61;94855.72;5064263;28;20032;-82
2022/02/19 06:40:30;;;;;;;6.75;2.92;;;;;;;9.41;51.27;94864.53;5063333;28;20488;-79
2022/02/19 06:42:58;;;;;;;7.10;3.20;;;;;;;10.95;46.94;94872.28;5063468;28;20028;-81
2022/02/19 06:45:23;;;;;;;9.73;4.97;;;;;;;11.30;45.44;94870.88;5063990;28;20028;-83
2022/02/19 06:47:54;;;;;;;7.22;4.25;;;;;;;11.38;44.98;94873.34;5059124;28;20029;-82
2022/02/19 06:50:29;;;;;;;6.82;3.38;;;;;;;12.16;42.86;94876.22;5065278;28;20021;-86
2022/02/19 06:53:04;;;;;;;5.47;3.78;;;;;;;13.75;40.71;94869.63;5061657;28;20024;-84
2022/02/19 06:55:29;;;;;;;10.02;5.43;;;;;;;15.07;38.42;94876.06;5059960;28;20482;-84
2022/02/19 06:57:57;;;;;;;9.23;5.22;;;;;;;15.71;36.91;94869.22;5049735;28;20028;-82
2022/02/19 07:00:25;;;;;;;10.20;6.45;;;;;;;16.96;34.52;94875.75;5042146;28;20119;-82
2022/02/19 07:02:53;;;;;;;8.85;5.18;;;;;;;18.04;32.40;94879.69;5039871;28;20032;-82
2022/02/19 07:05:18;;;;;;;6.32;4.30;;;;;;;15.33;37.31;94878.69;5038095;28;20033;-82
2022/02/19 07:07:44;;;;;;;5.20;4.10;;;;;;;16.00;36.93;94888.84;5039874;28;20640;-81
2022/02/19 07:10:10;;;;;;;5.10;3.90;;;;;;;16.74;35.81;94878.72;5037051;28;20029;-83
2022/02/19 07:12:37;;;;;;;6.95;3.72;;;;;;;15.37;38.40;94889.53;5040579;28;20085;-85
2022/02/19 07:15:08;;;;;;;4.18;3.20;;;;;;;15.50;38.28;94885.16;5052260;28;20095;-84
2022/02/19 07:17:47;;;;;;;8.18;4.47;;;;;;;16.68;38.67;94889.22;5037998;28;20078;-84
2022/02/19 07:20:13;;;;;;;12.45;6.88;;;;;;;17.40;36.86;94881.66;5067945;28;20068;-82
2022/02/19 07:22:39;;;;;;;11.40;8.60;;;;;;;16.96;36.55;94881.00;5027393;28;20071;-83
2022/02/19 07:25:05;;;;;;;10.27;9.18;;;;;;;16.45;37.18;94875.81;5052790;28;20036;-83
2022/02/19 07:27:40;;;;;;;12.13;9.02;;;;;;;19.33;33.35;94896.56;5055221;28;20061;-80
2022/02/19 07:30:08;;;;;;;8.68;7.78;;;;;;;17.54;35.28;94884.16;5053974;28;20033;-79
2022/02/19 07:32:38;;;;;;;9.80;7.65;;;;;;;18.40;34.63;94893.56;5038384;28;20047;-80
2022/02/19 07:35:05;;;;;;;9.13;7.55;;;;;;;18.29;35.61;94883.84;5049762;28;20020;-83
2022/02/19 07:37:30;;;;;;;8.48;6.78;;;;;;;19.73;33.30;94886.25;5042171;28;20064;-82
2022/02/19 07:39:56;;;;;;;10.57;5.88;;;;;;;18.97;33.28;94880.97;5038047;28;20534;-83
2022/02/19 07:42:22;;;;;;;7.50;5.35;;;;;;;19.82;32.12;94878.81;5056715;28;20021;-83
2022/02/19 07:44:47;;;;;;;7.75;5.68;;;;;;;19.37;32.53;94878.53;5039868;28;20024;-82
2022/02/19 07:47:21;;;;;;;6.82;6.15;;;;;;;18.43;33.78;94869.53;5059619;28;20046;-86
2022/02/19 08:03:20;;;;;;;10.23;5.35;;;;;;;15.37;38.41;94895.56;5355864;23;20503;-80
2022/02/19 08:05:46;;;;;;;10.65;5.95;;;;;;;12.46;45.83;94901.13;4987221;28;20097;-86
2022/02/19 08:08:11;;;;;;;10.18;6.22;;;;;;;11.30;47.04;94891.59;4982993;28;20031;-83
2022/02/19 08:10:37;;;;;;;10.43;6.28;;;;;;;12.29;45.44;94896.34;5009682;28;20080;-84
2022/02/19 08:13:09;;;;;;;9.25;5.35;;;;;;;13.40;41.92;94888.81;5008407;28;20060;-86
2022/02/19 08:15:36;;;;;;;10.68;5.70;;;;;;;12.38;45.36;94890.88;4988867;28;20049;-77
2022/02/19 08:18:06;;;;;;;10.52;5.93;;;;;;;13.02;43.68;94891.69;4993963;28;20062;-77
2022/02/19 08:20:35;;;;;;;9.82;5.32;;;;;;;13.38;41.35;94888.22;4995560;28;20033;-77
2022/02/19 08:23:01;;;;;;;9.25;5.20;;;;;;;14.42;41.34;94884.56;4991700;28;20571;-79
2022/02/19 08:25:27;;;;;;;11.10;6.10;;;;;;;14.21;42.05;94886.28;4983259;28;20522;-82
2022/02/19 08:27:52;;;;;;;11.07;6.07;;;;;;;14.06;42.92;94895.25;4956707;28;20026;-84
2022/02/19 08:30:18;;;;;;;9.07;6.05;;;;;;;13.04;42.73;94891.50;4995345;28;20029;-82
2022/02/19 08:32:43;;;;;;;12.77;6.63;;;;;;;13.10;44.09;94888.97;4999174;28;20024;-81
2022/02/19 08:35:09;;;;;;;10.10;6.70;;;;;;;13.96;43.47;94884.38;4987432;28;20054;-85
2022/02/19 08:37:35;;;;;;;9.80;5.10;;;;;;;14.00;41.14;94890.81;5007519;28;20038;-82
2022/02/19 08:40:01;;;;;;;9.40;6.05;;;;;;;14.29;41.57;94880.09;4985955;28;20060;-81
2022/02/19 08:42:26;;;;;;;6.63;4.45;;;;;;;14.82;38.26;94886.28;5006377;28;20026;-82
2022/02/19 08:44:52;;;;;;;9.25;5.57;;;;;;;15.72;39.94;94888.31;4985226;28;20634;-80
2022/02/19 08:47:17;;;;;;;8.93;5.50;;;;;;;15.81;38.47;94867.00;5007435;28;20390;-81
2022/02/19 08:49:43;;;;;;;10.10;5.78;;;;;;;15.59;37.38;94873.47;4989758;28;20480;-81
2022/02/19 08:52:08;;;;;;;6.07;4.53;;;;;;;16.23;36.26;94868.28;5007624;28;20053;-80
2022/02/19 08:54:36;;;;;;;5.93;4.00;;;;;;;17.92;33.42;94869.09;4985782;28;20021;-81
2022/02/19 08:57:03;;;;;;;7.07;4.55;;;;;;;19.13;32.10;94877.69;5003030;28;20034;-82
2022/02/19 08:59:28;;;;;;;9.32;4.10;;;;;;;19.43;30.34;94869.75;4986695;28;20026;-83
2022/02/19 09:01:56;;;;;;;11.88;4.30;;;;;;;20.35;29.39;94883.91;4985504;28;20089;-81
2022/02/19 09:04:21;;;;;;;6.57;4.32;;;;;;;21.67;27.91;94881.81;4985266;28;20562;-81
2022/02/19 09:06:47;;;;;;;60.03;38.95;;;;;;;21.94;28.18;94882.75;4984350;28;20030;-79
2022/02/19 09:09:12;;;;;;;10.52;5.00;;;;;;;23.25;27.17;94894.06;4985322;28;20021;-80
2022/02/19 09:11:38;;;;;;;11.38;5.75;;;;;;;22.35;26.82;94887.53;5003204;28;20299;-82
2022/02/19 09:14:05;;;;;;;9.60;4.88;;;;;;;19.10;28.99;94893.91;4984482;28;20105;-80
2022/02/19 09:16:34;;;;;;;9.57;5.20;;;;;;;23.02;25.80;94882.75;4970374;28;20029;-81
2022/02/19 09:19:04;;;;;;;8.98;5.75;;;;;;;20.03;28.42;94894.00;4983834;28;20038;-84
2022/02/19 09:21:30;;;;;;;12.93;5.18;;;;;;;21.80;27.32;94890.16;5005391;28;20551;-80
2022/02/19 09:23:55;;;;;;;8.15;4.28;;;;;;;18.88;30.18;94887.53;4988123;28;20505;-81
2022/02/19 09:26:21;;;;;;;6.95;4.45;;;;;;;22.20;26.80;94894.44;4970982;28;20034;-81
2022/02/19 09:28:47;;;;;;;4.05;3.38;;;;;;;23.85;24.39;94891.97;4958488;28;20095;-80
2022/02/19 09:31:13;;;;;;;9.15;5.28;;;;;;;24.15;24.39;94894.03;5003463;28;20092;-78
2022/02/19 09:33:39;;;;;;;6.15;3.40;;;;;;;22.43;24.86;94887.13;4989716;28;20045;-78
2022/02/19 09:36:05;;;;;;;13.65;3.60;;;;;;;22.98;26.11;94888.81;5007081;28;20408;-81
2022/02/19 09:38:30;;;;;;;5.80;3.58;;;;;;;24.56;23.81;94881.81;4990318;28;20922;-80
2022/02/19 09:40:57;;;;;;;5.60;2.97;;;;;;;24.55;23.60;94883.66;5006493;28;20816;-79
2022/02/19 09:43:24;;;;;;;8.48;4.10;;;;;;;24.61;23.92;94881.81;5007533;28;20041;-79
2022/02/19 09:45:50;;;;;;;7.60;3.70;;;;;;;25.50;23.21;94869.03;4988680;28;20052;-79
2022/02/19 09:48:17;;;;;;;7.50;3.38;;;;;;;24.65;23.98;94873.09;4989351;28;20658;-78
2022/02/19 09:50:44;;;;;;;4.20;2.33;;;;;;;24.51;24.04;94881.75;5007132;28;20029;-78
2022/02/19 09:53:11;;;;;;;5.80;2.45;;;;;;;25.90;22.47;94880.69;4988626;28;20059;-78
2022/02/19 09:55:36;;;;;;;5.93;2.65;;;;;;;25.43;22.20;94881.75;4970105;28;20735;-79
2022/02/19 09:58:02;;;;;;;2.70;2.03;;;;;;;24.67;22.78;94881.56;5005900;28;20457;-79
2022/02/19 10:00:45;;;;;;;4.53;2.78;;;;;;;25.56;22.29;94877.78;4989675;28;20044;-78
2022/02/19 10:03:17;;;;;;;4.90;2.20;;;;;;;25.46;22.45;94878.56;4988249;28;20088;-79
2022/02/19 10:05:43;;;;;;;5.38;2.78;;;;;;;25.69;22.77;94872.75;5004983;28;20038;-78
2022/02/19 10:08:09;;;;;;;7.13;2.85;;;;;;;25.82;22.55;94876.72;4988316;28;20057;-78
2022/02/19 10:10:37;;;;;;;5.30;2.90;;;;;;;24.21;22.88;94874.47;5005326;28;20415;-79
2022/02/19 10:13:03;;;;;;;8.27;2.97;;;;;;;25.23;22.87;94860.53;4987462;28;20496;-79
2022/02/19 10:15:58;;;;;;;3.85;2.33;;;;;;;21.21;26.70;94872.38;4987628;28;20061;-80
2022/02/19 10:18:34;;;;;;;4.80;2.45;;;;;;;22.53;26.83;94867.97;4967325;28;20042;-81
2022/02/19 10:21:13;;;;;;;4.25;2.60;;;;;;;20.78;28.41;94859.72;4997893;28;20568;-79
2022/02/19 10:23:43;;;;;;;5.78;2.38;;;;;;;23.19;26.33;94855.44;5004188;28;20033;-79
2022/02/19 10:26:10;;;;;;;6.60;2.70;;;;;;;22.71;26.27;94851.00;5004787;28;20050;-78
2022/02/19 10:28:35;;;;;;;4.45;2.40;;;;;;;23.12;25.84;94858.28;4986564;28;20030;-79
2022/02/19 10:31:17;;;;;;;5.00;2.50;;;;;;;22.85;25.82;94862.78;4985115;28;20514;-79
2022/02/19 10:33:43;;;;;;;6.60;2.10;;;;;;;19.68;29.53;94856.44;4984359;28;20021;-77
2022/02/19 10:36:17;;;;;;;4.15;2.13;;;;;;;19.29;32.88;94852.59;4986498;28;20034;-79
2022/02/19 10:38:57;;;;;;;5.55;2.30;;;;;;;18.41;33.17;94844.53;5004938;28;20515;-81
2022/02/19 10:41:41;;;;;;;5.82;1.98;;;;;;;18.95;32.86;94841.78;4984942;28;20465;-78
2022/02/19 10:44:27;;;;;;;5.38;2.33;;;;;;;17.81;34.51;94828.72;4984752;28;20037;-78
2022/02/19 10:46:57;;;;;;;5.90;2.47;;;;;;;17.24;35.05;94837.69;5002081;28;20036;-79
2022/02/19 10:49:23;;;;;;;;;;;;;;;16.31;37.00;94825.44;4967406;28;20583;-79
2022/02/19 10:51:48;;;;;;;3.63;2.22;;;;;;;16.49;36.62;94820.28;4967806;28;20008;-79
2022/02/19 10:54:20;;;;;;;2.97;1.85;;;;;;;16.60;36.55;94814.41;4982037;28;20057;-78
2022/02/19 10:56:46;;;;;;;4.03;2.20;;;;;;;16.65;35.30;94817.22;4985373;28;20026;-78
2022/02/19 10:59:13;;;;;;;5.63;2.30;;;;;;;16.99;34.70;94815.13;5003489;28;20092;-78
2022/02/19 11:01:39;;;;;;;3.45;1.95;;;;;;;16.61;37.17;94817.84;4982390;28;20167;-79
2022/02/19 11:04:06;;;;;;;3.22;1.63;;;;;;;17.08;35.30;94806.03;5006362;28;20500;-78
2022/02/19 11:06:33;;;;;;;7.95;2.10;;;;;;;17.62;36.07;94802.75;4976830;28;20030;-79
2022/02/19 11:09:03;;;;;;;3.58;1.77;;;;;;;16.93;34.70;94793.25;4973537;28;20061;-79
2022/02/19 11:11:32;;;;;;;6.88;1.88;;;;;;;17.51;33.27;94801.59;4979296;28;20038;-77
2022/02/19 11:13:59;;;;;;;4.05;1.85;;;;;;;17.84;32.52;94794.22;5005695;28;20030;-78
2022/02/19 11:16:24;;;;;;;3.30;2.00;;;;;;;17.82;31.84;94792.81;5007536;28;20034;-79
2022/02/19 11:18:50;;;;;;;3.25;1.63;;;;;;;17.91;32.45;94786.28;4989305;28;20022;-81
2022/02/19 11:21:17;;;;;;;3.53;1.83;;;;;;;17.64;33.15;94784.97;5006895;28;20050;-81
2022/02/19 11:23:45;;;;;;;4.43;1.77;;;;;;;17.80;33.40;94787.81;5005478;28;20401;-81
2022/02/19 11:26:10;;;;;;;2.90;1.77;;;;;;;17.88;31.13;94776.25;5004199;28;20120;-79
2022/02/19 11:28:37;;;;;;;2.67;1.73;;;;;;;17.47;31.78;94773.44;4989049;28;20133;-81
2022/02/19 11:31:05;;;;;;;2.80;1.52;;;;;;;17.63;32.10;94776.31;4972366;28;20026;-77
2022/02/19 11:33:31;;;;;;;3.85;2.35;;;;;;;17.79;30.97;94765.25;4989350;28;20419;-81
2022/02/19 11:36:03;;;;;;;4.20;1.90;;;;;;;18.07;30.92;94767.34;4975574;28;20022;-81
2022/02/19 11:38:37;;;;;;;4.35;1.70;;;;;;;17.59;33.18;94766.50;5007365;28;20053;-81
2022/02/19 11:41:07;;;;;;;4.72;2.00;;;;;;;17.33;32.52;94751.84;4985433;28;20546;-80
2022/02/19 11:43:44;;;;;;;3.30;1.73;;;;;;;17.64;32.69;94753.53;4981991;28;20042;-82